Time;durP1;ratioP1;P1;durP2;ratioP2;P2;SDS_P1;SDS_P2;PMS_P1;PMS_P2;Temp;Humidity;BMP_temperature;BMP_pressure;BME280_temperature;BME280_humidity;BME280_pressure;Samples;Min_cycle;Max_cycle;Signal;HPM_P1;HPM_P2
2022/12/13 00:01:16;;;;;;;0.20;0.20;;;;;;;-7.71;100.00;95969.00;5060770;28;20276;-73
2022/12/13 00:04:06;;;;;;;0.20;0.20;;;;;;;-7.69;100.00;95973.13;5087780;27;20051;-73
2022/12/13 00:06:53;;;;;;;0.20;0.20;;;;;;;-7.75;100.00;95957.28;5071437;28;20197;-73
2022/12/13 00:09:41;;;;;;;0.20;0.20;;;;;;;-7.73;100.00;95948.38;5076738;27;20058;-70
2022/12/13 00:12:27;;;;;;;0.20;0.20;;;;;;;-7.73;100.00;95950.97;5072999;28;20440;-70
2022/12/13 00:15:12;;;;;;;0.20;0.20;;;;;;;-7.83;100.00;95941.63;5072273;27;20055;-74
2022/12/13 00:17:58;;;;;;;0.20;0.20;;;;;;;-7.83;100.00;95942.44;5074111;28;20370;-71
2022/12/13 00:20:44;;;;;;;0.20;0.20;;;;;;;-7.82;100.00;95946.66;5073543;28;20507;-72
2022/12/13 00:23:30;;;;;;;0.20;0.20;;;;;;;-7.79;100.00;95941.16;5070932;27;20695;-73
2022/12/13 00:26:19;;;;;;;0.20;0.20;;;;;;;-7.89;100.00;95943.84;5075578;28;20048;-72
2022/12/13 00:29:07;;;;;;;0.20;0.20;;;;;;;-8.16;100.00;95931.72;5073273;28;20056;-74
2022/12/13 00:31:53;;;;;;;0.20;0.20;;;;;;;-8.36;100.00;95942.38;5060604;28;20060;-73
2022/12/13 00:34:39;;;;;;;0.20;0.20;;;;;;;-8.44;100.00;95943.91;5052664;28;20337;-71
2022/12/13 00:37:25;;;;;;;0.20;0.20;;;;;;;-8.47;100.00;95935.63;5050584;28;20036;-71
2022/12/13 00:40:11;;;;;;;0.20;0.20;;;;;;;-8.48;100.00;95944.31;5052422;28;20531;-71
2022/12/13 00:42:57;;;;;;;0.20;0.20;;;;;;;-8.53;100.00;95933.59;5053365;28;20048;-70
2022/12/13 00:45:43;;;;;;;0.20;0.20;;;;;;;-8.47;100.00;95949.41;5054392;28;20340;-71
2022/12/13 00:48:29;;;;;;;0.17;0.17;;;;;;;-8.55;100.00;95951.91;5035486;28;20457;-71
2022/12/13 00:51:16;;;;;;;0.20;0.20;;;;;;;-8.61;100.00;95951.66;5036820;28;20055;-71
2022/12/13 00:54:02;;;;;;;0.20;0.20;;;;;;;-8.64;100.00;95942.34;5067180;28;20744;-71
2022/12/13 00:56:50;;;;;;;0.20;0.20;;;;;;;-8.69;100.00;95947.16;5053137;28;20036;-71
2022/12/13 00:59:35;;;;;;;0.10;0.10;;;;;;;-8.70;100.00;95953.31;5037788;28;20052;-70
2022/12/13 01:02:21;;;;;;;0.20;0.20;;;;;;;-8.69;100.00;95943.75;5039891;28;20393;-71
2022/12/13 01:05:08;;;;;;;0.20;0.20;;;;;;;-8.67;100.00;95942.66;5052718;28;20138;-71
2022/12/13 01:07:53;;;;;;;0.20;0.20;;;;;;;-8.56;100.00;95944.22;5038157;28;20511;-71
2022/12/13 01:10:44;;;;;;;0.15;0.15;;;;;;;-8.44;100.00;95937.91;5052037;28;20567;-71
2022/12/13 01:13:31;;;;;;;0.20;0.20;;;;;;;-8.35;100.00;95941.41;5052252;28;20482;-72
2022/12/13 01:16:17;;;;;;;0.20;0.20;;;;;;;-8.15;100.00;95928.16;5052296;28;20242;-71
2022/12/13 01:19:03;;;;;;;0.20;0.20;;;;;;;-7.87;100.00;95935.91;5053455;28;20643;-71
2022/12/13 01:21:53;;;;;;;0.20;0.20;;;;;;;-7.75;100.00;95926.13;5051036;28;20039;-70
2022/12/13 01:24:40;;;;;;;0.20;0.20;;;;;;;-7.57;100.00;95930.34;5052120;28;20039;-72
2022/12/13 01:27:26;;;;;;;0.20;0.20;;;;;;;-7.41;100.00;95939.22;5051325;28;20039;-71
2022/12/13 01:30:12;;;;;;;0.20;0.20;;;;;;;-7.31;100.00;95924.38;5052974;28;20569;-72
2022/12/13 01:32:58;;;;;;;0.20;0.20;;;;;;;-7.11;100.00;95930.19;5061073;28;20077;-70
2022/12/13 01:35:45;;;;;;;0.20;0.20;;;;;;;-7.03;100.00;95925.06;5073596;28;20040;-71
2022/12/13 01:38:31;;;;;;;0.20;0.20;;;;;;;-6.98;100.00;95932.41;5068857;28;20238;-73
2022/12/13 01:41:20;;;;;;;0.20;0.20;;;;;;;-6.90;100.00;95933.28;5070077;28;20048;-73
2022/12/13 01:44:44;;;;;;;0.20;0.20;;;;;;;-6.87;100.00;95932.16;5058148;28;20137;-72
2022/12/13 01:47:36;;;;;;;0.20;0.20;;;;;;;-6.86;100.00;95918.16;5068615;28;20600;-72
2022/12/13 01:50:26;;;;;;;0.20;0.20;;;;;;;-6.63;100.00;95927.06;5071513;28;20058;-72
2022/12/13 01:53:21;;;;;;;0.20;0.20;;;;;;;-6.60;100.00;95916.38;5072815;28;20106;-73
2022/12/13 01:56:15;;;;;;;0.20;0.20;;;;;;;-6.61;100.00;95917.34;5073593;28;20113;-75
2022/12/13 01:59:04;;;;;;;0.20;0.20;;;;;;;-6.58;100.00;95916.22;5069781;28;20560;-73
2022/12/13 02:01:50;;;;;;;0.20;0.20;;;;;;;-6.39;100.00;95921.16;5064557;28;20130;-71
2022/12/13 02:05:03;;;;;;;0.20;0.20;;;;;;;-6.30;100.00;95914.19;5058560;28;20040;-70
2022/12/13 02:07:50;;;;;;;0.20;0.20;;;;;;;-6.09;100.00;95917.19;5027221;28;20119;-73
2022/12/13 02:10:36;;;;;;;0.20;0.20;;;;;;;-6.28;100.00;95915.69;5073809;28;20347;-72
2022/12/13 02:13:25;;;;;;;0.20;0.20;;;;;;;-6.50;100.00;95916.25;5054909;28;20559;-72
2022/12/13 02:16:17;;;;;;;0.20;0.20;;;;;;;-6.55;100.00;95911.50;5070714;28;20318;-73
2022/12/13 02:19:14;;;;;;;0.20;0.20;;;;;;;-6.60;100.00;95924.19;5070315;28;20036;-72
2022/12/13 02:22:38;;;;;;;0.20;0.20;;;;;;;-6.53;100.00;95922.59;5074976;28;20356;-71
2022/12/13 02:25:43;;;;;;;0.20;0.20;;;;;;;-6.41;100.00;95928.31;5054420;28;20092;-73
2022/12/13 02:29:02;;;;;;;0.20;0.20;;;;;;;-6.32;100.00;95922.16;5069671;28;20123;-73
2022/12/13 02:32:28;;;;;;;0.20;0.20;;;;;;;-6.29;100.00;95918.44;5084499;27;20035;-73
2022/12/13 02:35:22;;;;;;;0.20;0.20;;;;;;;-6.14;100.00;95911.66;5069018;28;20048;-72
2022/12/13 02:38:15;;;;;;;0.15;0.15;;;;;;;-6.07;100.00;95920.47;5071823;28;20323;-73
2022/12/13 02:41:14;;;;;;;0.20;0.20;;;;;;;-6.03;100.00;95919.19;5072166;28;20047;-72
2022/12/13 02:44:09;;;;;;;0.20;0.20;;;;;;;-6.00;100.00;95913.63;5070973;28;20673;-72
2022/12/13 02:46:59;;;;;;;0.20;0.20;;;;;;;-6.06;100.00;95914.28;5070998;28;20039;-73
2022/12/13 02:49:48;;;;;;;0.20;0.20;;;;;;;-5.99;100.00;95909.25;5070582;28;20055;-72
2022/12/13 02:52:35;;;;;;;0.20;0.20;;;;;;;-5.88;100.00;95907.13;5068661;28;20844;-73
2022/12/13 02:55:21;;;;;;;0.20;0.20;;;;;;;-5.92;100.00;95899.81;5071941;28;20475;-72
2022/12/13 02:58:12;;;;;;;0.20;0.20;;;;;;;-5.89;100.00;95899.47;5069075;28;20800;-72
2022/12/13 03:01:26;;;;;;;0.28;0.28;;;;;;;-6.07;100.00;95886.63;5071925;28;20577;-71
2022/12/13 03:04:36;;;;;;;0.20;0.20;;;;;;;-5.98;100.00;95890.88;5069250;28;20047;-71
2022/12/13 03:07:29;;;;;;;0.20;0.20;;;;;;;-6.06;100.00;95890.84;5069017;28;20548;-72
2022/12/13 03:10:21;;;;;;;0.20;0.20;;;;;;;-6.23;100.00;95894.34;5072232;28;20098;-71
2022/12/13 03:16:37;;;;;;;0.20;0.20;;;;;;;-6.35;100.00;95890.44;5071153;28;20440;-72
2022/12/13 03:19:23;;;;;;;0.20;0.20;;;;;;;-6.48;100.00;95888.25;5068569;28;20434;-72
2022/12/13 03:22:09;;;;;;;0.20;0.20;;;;;;;-6.60;100.00;95879.94;5071734;28;20601;-72
2022/12/13 03:24:55;;;;;;;0.20;0.20;;;;;;;-6.67;100.00;95889.31;5070380;28;20440;-72
2022/12/13 03:27:40;;;;;;;0.20;0.20;;;;;;;-6.66;100.00;95890.16;5073139;28;20352;-71
2022/12/13 03:30:26;;;;;;;0.20;0.20;;;;;;;-6.75;100.00;95892.72;5056467;28;20552;-72
2022/12/13 03:33:12;;;;;;;0.20;0.20;;;;;;;-6.87;100.00;95880.09;5071642;28;20460;-72
2022/12/13 03:36:00;;;;;;;0.20;0.20;;;;;;;-6.95;100.00;95886.09;5070626;28;20070;-70
2022/12/13 03:38:47;;;;;;;0.20;0.20;;;;;;;-6.96;100.00;95881.84;5069847;28;20036;-72
2022/12/13 03:41:34;;;;;;;0.20;0.20;;;;;;;-6.98;100.00;95876.00;5071794;28;20043;-72
2022/12/13 03:44:20;;;;;;;0.20;0.20;;;;;;;-6.84;100.00;95878.03;5068540;28;20040;-72
2022/12/13 03:47:06;;;;;;;0.20;0.20;;;;;;;-6.84;100.00;95877.22;5071032;28;20513;-71
2022/12/13 03:49:52;;;;;;;0.20;0.20;;;;;;;-6.98;100.00;95881.19;5071419;28;20623;-70
2022/12/13 03:52:38;;;;;;;0.20;0.20;;;;;;;-6.92;100.00;95878.00;5057806;28;20554;-73
2022/12/13 03:55:24;;;;;;;0.20;0.20;;;;;;;-6.86;100.00;95876.53;5071062;28;20035;-72
2022/12/13 03:58:10;;;;;;;0.20;0.20;;;;;;;-6.76;100.00;95882.47;5072739;28;20039;-73
2022/12/13 04:00:56;;;;;;;0.10;0.10;;;;;;;-6.84;100.00;95874.63;5056603;28;20468;-73
2022/12/13 04:03:44;;;;;;;0.20;0.20;;;;;;;-6.75;100.00;95879.69;5070336;28;20132;-72
2022/12/13 04:06:29;;;;;;;0.20;0.20;;;;;;;-6.75;100.00;95884.09;5069159;28;20464;-73
2022/12/13 04:09:15;;;;;;;0.20;0.20;;;;;;;-6.87;100.00;95877.50;5068925;28;20643;-72
2022/12/13 04:15:08;;;;;;;0.17;0.17;;;;;;;-7.01;100.00;95890.09;5057136;28;20052;-73
2022/12/13 04:17:54;;;;;;;0.10;0.10;;;;;;;-6.99;100.00;95886.56;5071076;28;20047;-72
2022/12/13 04:20:41;;;;;;;0.20;0.20;;;;;;;-6.88;100.00;95886.28;5071682;28;20348;-73
2022/12/13 04:23:26;;;;;;;0.20;0.20;;;;;;;-6.71;100.00;95889.78;5069046;28;20163;-71
2022/12/13 04:26:13;;;;;;;0.10;0.10;;;;;;;-6.65;100.00;95876.16;5070719;28;20048;-73
2022/12/13 04:28:59;;;;;;;0.30;0.30;;;;;;;-6.70;100.00;95874.00;5048754;28;20552;-73
2022/12/13 04:31:46;;;;;;;0.20;0.20;;;;;;;-6.45;100.00;95874.94;5061638;28;20050;-70
2022/12/13 04:34:32;;;;;;;0.20;0.20;;;;;;;-6.24;100.00;95884.91;5072258;28;20134;-72
2022/12/13 04:37:18;;;;;;;0.20;0.20;;;;;;;-6.20;100.00;95876.63;5059873;28;20437;-73
2022/12/13 04:40:04;;;;;;;0.20;0.20;;;;;;;-6.14;100.00;95877.81;5074668;28;20040;-71
2022/12/13 04:42:50;;;;;;;0.20;0.20;;;;;;;-6.12;100.00;95882.84;5075773;27;20290;-70
2022/12/13 04:45:36;;;;;;;0.20;0.20;;;;;;;-6.17;100.00;95870.28;5072475;28;20393;-71
2022/12/13 04:48:24;;;;;;;0.20;0.20;;;;;;;-6.09;100.00;95878.13;5073629;28;20274;-73
2022/12/13 04:51:11;;;;;;;0.20;0.20;;;;;;;-6.28;100.00;95875.81;5073293;28;20056;-71
2022/12/13 04:53:56;;;;;;;0.20;0.20;;;;;;;-6.39;100.00;95868.28;5057041;28;20247;-71
2022/12/13 04:56:42;;;;;;;0.20;0.20;;;;;;;-6.33;100.00;95891.91;5072216;28;20056;-69
2022/12/13 04:59:28;;;;;;;0.20;0.20;;;;;;;-6.32;100.00;95892.72;5072351;28;20431;-71
2022/12/13 05:02:14;;;;;;;0.20;0.20;;;;;;;-6.39;100.00;95887.31;5077207;28;20043;-71
2022/12/13 05:05:00;;;;;;;0.20;0.20;;;;;;;-6.30;100.00;95891.59;5074317;28;20162;-71
2022/12/13 05:07:46;;;;;;;0.20;0.20;;;;;;;-6.31;100.00;95882.13;5074426;28;20075;-71
2022/12/13 05:10:32;;;;;;;0.20;0.20;;;;;;;-6.35;100.00;95888.63;5074537;28;20535;-71
2022/12/13 05:13:18;;;;;;;0.20;0.20;;;;;;;-6.24;100.00;95888.34;5073302;28;20553;-71
2022/12/13 05:16:06;;;;;;;0.20;0.20;;;;;;;-6.31;100.00;95876.91;5062953;28;20048;-72
2022/12/13 05:18:52;;;;;;;0.20;0.20;;;;;;;-6.22;100.00;95880.38;5075451;28;20461;-69
2022/12/13 05:21:38;;;;;;;0.20;0.20;;;;;;;-6.38;100.00;95886.38;5074456;28;20350;-71
2022/12/13 05:24:24;;;;;;;0.20;0.20;;;;;;;-6.20;100.00;95886.25;5072912;28;20122;-71
2022/12/13 05:27:10;;;;;;;0.20;0.20;;;;;;;-6.29;100.00;95882.00;5074928;28;20052;-72
2022/12/13 05:29:56;;;;;;;0.20;0.20;;;;;;;-6.21;100.00;95875.00;5074632;28;20484;-73
2022/12/13 05:32:42;;;;;;;0.20;0.20;;;;;;;-6.01;100.00;95879.94;5075024;28;20130;-73
2022/12/13 05:35:29;;;;;;;0.20;0.20;;;;;;;-6.18;100.00;95868.66;5072177;28;20043;-73
2022/12/13 05:38:15;;;;;;;0.20;0.20;;;;;;;-6.23;100.00;95873.53;5086150;27;20056;-72
2022/12/13 05:41:03;;;;;;;0.20;0.20;;;;;;;-6.19;100.00;95865.25;5062871;28;20426;-72
2022/12/13 05:43:50;;;;;;;0.20;0.20;;;;;;;-5.96;100.00;95873.28;5067821;28;20372;-72
2022/12/13 05:46:36;;;;;;;0.20;0.20;;;;;;;-6.06;100.00;95867.41;5075575;28;20073;-70
2022/12/13 05:49:22;;;;;;;0.20;0.20;;;;;;;-6.30;100.00;95872.53;5073271;28;20312;-69
2022/12/13 05:52:21;;;;;;;0.20;0.20;;;;;;;-6.28;100.00;95868.81;5075341;28;20040;-71
2022/12/13 05:55:07;;;;;;;0.20;0.20;;;;;;;-6.15;100.00;95870.94;5073137;28;20036;-70
2022/12/13 05:57:53;;;;;;;0.20;0.20;;;;;;;-6.22;100.00;95878.59;5071915;28;20036;-72
2022/12/13 06:00:39;;;;;;;0.20;0.20;;;;;;;-6.04;100.00;95878.47;5074715;28;20043;-71
2022/12/13 06:03:25;;;;;;;0.30;0.30;;;;;;;-6.11;100.00;95880.09;5074167;28;20051;-72
2022/12/13 06:06:12;;;;;;;0.20;0.20;;;;;;;-6.04;100.00;95872.44;5069869;28;20066;-71
2022/12/13 06:08:58;;;;;;;0.20;0.20;;;;;;;-5.79;100.00;95875.88;5061280;28;20118;-72
2022/12/13 06:11:44;;;;;;;0.20;0.20;;;;;;;-5.79;100.00;95870.66;5065239;28;20044;-69
2022/12/13 06:14:30;;;;;;;0.20;0.20;;;;;;;-5.90;100.00;95867.41;5070898;28;20776;-73
2022/12/13 06:17:15;;;;;;;0.20;0.20;;;;;;;-5.95;100.00;95861.88;5073344;28;20194;-73
2022/12/13 06:20:03;;;;;;;0.20;0.20;;;;;;;-5.95;100.00;95872.28;5060085;28;20500;-73
2022/12/13 06:22:49;;;;;;;0.20;0.20;;;;;;;-6.12;100.00;95867.22;5073958;28;20355;-72
2022/12/13 06:25:36;;;;;;;0.20;0.20;;;;;;;-6.10;100.00;95865.25;5070716;28;20044;-72
2022/12/13 06:28:22;;;;;;;0.20;0.20;;;;;;;-6.24;100.00;95869.28;5071950;28;20039;-70
2022/12/13 06:31:08;;;;;;;0.20;0.20;;;;;;;-6.19;100.00;95861.81;5073072;28;20518;-71
2022/12/13 06:33:53;;;;;;;0.20;0.20;;;;;;;-6.36;100.00;95860.16;5071241;28;20088;-70
2022/12/13 06:36:39;;;;;;;0.20;0.20;;;;;;;-6.35;100.00;95872.19;5074770;28;20043;-72
2022/12/13 06:39:25;;;;;;;0.20;0.20;;;;;;;-6.54;100.00;95862.84;5056640;28;20315;-71
2022/12/13 06:42:17;;;;;;;0.20;0.20;;;;;;;-6.68;100.00;95864.28;5074138;28;20048;-73
2022/12/13 06:45:03;;;;;;;;;;;;;;;-6.77;100.00;95860.81;5073764;28;20875;-73
2022/12/13 06:47:49;;;;;;;0.20;0.20;;;;;;;-6.83;100.00;95864.03;5073740;28;19920;-71
2022/12/13 06:50:35;;;;;;;0.20;0.20;;;;;;;-6.95;100.00;95861.84;5069603;28;20227;-69
2022/12/13 06:53:23;;;;;;;0.15;0.15;;;;;;;-7.00;100.00;95857.13;5069710;28;20510;-72
2022/12/13 06:56:11;;;;;;;0.20;0.20;;;;;;;-7.04;100.00;95855.78;5060153;28;20047;-72
2022/12/13 06:58:58;;;;;;;0.20;0.20;;;;;;;-7.08;100.00;95860.50;5072011;28;20043;-72
2022/12/13 07:01:44;;;;;;;0.20;0.20;;;;;;;-7.10;100.00;95859.00;5073540;28;20036;-73
2022/12/13 07:04:31;;;;;;;0.20;0.20;;;;;;;-7.11;100.00;95853.00;5070390;28;20476;-73
2022/12/13 07:07:17;;;;;;;0.20;0.20;;;;;;;-7.26;100.00;95846.72;5056235;28;20048;-70
2022/12/13 07:10:03;;;;;;;0.20;0.20;;;;;;;-7.28;100.00;95856.47;5076270;28;20032;-72
2022/12/13 07:12:50;;;;;;;0.20;0.20;;;;;;;-7.30;100.00;95856.63;5059199;28;20035;-70
2022/12/13 07:15:36;;;;;;;0.20;0.20;;;;;;;-7.32;100.00;95852.53;5069886;28;20142;-71
2022/12/13 07:18:21;;;;;;;0.20;0.20;;;;;;;-7.36;100.00;95848.63;5073977;28;20040;-70
2022/12/13 07:21:09;;;;;;;0.20;0.20;;;;;;;-7.31;100.00;95857.59;5074078;28;20087;-69
2022/12/13 07:23:55;;;;;;;0.20;0.20;;;;;;;-7.33;100.00;95851.72;5072802;28;20036;-71
2022/12/13 07:26:41;;;;;;;0.17;0.17;;;;;;;-7.31;100.00;95854.19;5074208;28;20048;-72
2022/12/13 07:29:28;;;;;;;0.20;0.20;;;;;;;-7.38;100.00;95842.75;5073062;28;20038;-71
2022/12/13 07:32:14;;;;;;;0.20;0.20;;;;;;;-7.32;100.00;95855.13;5050108;28;20063;-72
2022/12/13 07:35:00;;;;;;;0.10;0.10;;;;;;;-7.34;100.00;95860.50;5058184;28;20466;-72
2022/12/13 07:37:46;;;;;;;0.20;0.20;;;;;;;-7.34;100.00;95863.09;5072559;28;20032;-72
2022/12/13 07:40:36;;;;;;;0.13;0.13;;;;;;;-7.29;100.00;95867.84;5073831;28;20538;-71
2022/12/13 07:43:23;;;;;;;0.20;0.20;;;;;;;-7.35;100.00;95861.47;5071583;28;20093;-70
2022/12/13 07:46:10;;;;;;;0.20;0.20;;;;;;;-7.26;100.00;95877.94;5073366;28;20131;-72
2022/12/13 07:48:56;;;;;;;0.20;0.20;;;;;;;-7.23;100.00;95875.03;5074431;28;20235;-73
2022/12/13 07:51:42;;;;;;;0.20;0.20;;;;;;;-7.24;100.00;95875.97;5060808;28;20455;-73
2022/12/13 07:54:27;;;;;;;0.20;0.20;;;;;;;-7.17;100.00;95876.19;5071863;28;20444;-72
2022/12/13 07:57:13;;;;;;;0.20;0.20;;;;;;;-7.23;100.00;95880.25;5057989;28;20048;-72
2022/12/13 08:00:00;;;;;;;0.20;0.20;;;;;;;-7.23;100.00;95871.63;5051244;28;20502;-72
2022/12/13 08:02:45;;;;;;;0.20;0.20;;;;;;;-7.31;100.00;95867.19;5074192;28;20040;-71
2022/12/13 08:05:32;;;;;;;0.20;0.20;;;;;;;-7.27;100.00;95859.88;5073985;28;20267;-72
2022/12/13 08:08:18;;;;;;;0.20;0.20;;;;;;;-7.36;100.00;95861.63;5061946;28;20324;-72
2022/12/13 08:11:14;;;;;;;0.20;0.20;;;;;;;-7.27;100.00;95862.47;5077163;28;20047;-69
2022/12/13 08:14:00;;;;;;;0.20;0.20;;;;;;;-7.24;100.00;95854.38;5077280;28;20052;-72
2022/12/13 08:16:46;;;;;;;0.20;0.20;;;;;;;-7.23;100.00;95859.44;5073666;28;20284;-72
2022/12/13 08:19:32;;;;;;;0.20;0.20;;;;;;;-7.21;100.00;95854.91;5074124;28;20488;-72
2022/12/13 08:22:18;;;;;;;0.28;0.28;;;;;;;-7.23;100.00;95867.25;5076142;28;20471;-72
2022/12/13 08:25:05;;;;;;;0.20;0.20;;;;;;;-7.16;100.00;95867.41;5077500;28;20067;-69
2022/12/13 08:27:51;;;;;;;0.20;0.20;;;;;;;-7.11;100.00;95860.78;5075216;28;20047;-71
2022/12/13 08:30:37;;;;;;;0.20;0.20;;;;;;;-7.05;100.00;95867.19;5075892;28;20044;-72
2022/12/13 08:33:23;;;;;;;0.30;0.30;;;;;;;-6.92;100.00;95869.38;5075673;28;20249;-71
2022/12/13 08:36:10;;;;;;;0.20;0.20;;;;;;;-6.86;100.00;95871.31;5076660;28;20068;-72
2022/12/13 08:39:01;;;;;;;0.20;0.20;;;;;;;-6.87;100.00;95875.72;5077091;28;20067;-72
2022/12/13 08:41:47;;;;;;;0.20;0.20;;;;;;;-6.78;100.00;95869.56;5076965;28;20408;-71
2022/12/13 08:44:33;;;;;;;0.20;0.20;;;;;;;-6.76;100.00;95874.66;5072168;28;20040;-73
2022/12/13 08:47:21;;;;;;;0.20;0.20;;;;;;;-6.67;100.00;95873.72;5061003;28;20469;-72
2022/12/13 08:50:06;;;;;;;0.20;0.20;;;;;;;-6.65;100.00;95869.16;5075484;28;20082;-72
2022/12/13 08:52:53;;;;;;;0.20;0.20;;;;;;;-6.50;100.00;95874.59;5058523;28;20452;-74
2022/12/13 08:55:38;;;;;;;0.20;0.20;;;;;;;-6.44;100.00;95875.75;5070019;28;20527;-71
2022/12/13 08:58:24;;;;;;;0.20;0.20;;;;;;;-6.44;100.00;95870.56;5075947;28;20415;-71
2022/12/13 09:01:11;;;;;;;0.30;0.30;;;;;;;-6.30;100.00;95875.13;5063981;28;20066;-70
2022/12/13 09:03:57;;;;;;;0.20;0.20;;;;;;;-6.23;100.00;95876.13;5071770;28;20513;-72
2022/12/13 09:06:43;;;;;;;0.30;0.30;;;;;;;-6.07;100.00;95865.78;5061993;28;20040;-74
2022/12/13 09:09:29;;;;;;;0.25;0.25;;;;;;;-5.72;100.00;95877.66;5073023;28;20040;-74
2022/12/13 09:12:15;;;;;;;0.30;0.30;;;;;;;-5.23;100.00;95867.22;5078028;28;20050;-74
2022/12/13 09:15:01;;;;;;;0.30;0.30;;;;;;;-4.18;100.00;95877.53;5074731;28;20155;-74
2022/12/13 09:17:47;;;;;;;0.50;0.40;;;;;;;-3.06;100.00;95870.84;5061970;28;20044;-73
2022/12/13 09:20:34;;;;;;;0.40;0.30;;;;;;;-1.37;100.00;95862.81;5064104;28;20166;-72
2022/12/13 09:23:20;;;;;;;0.43;0.40;;;;;;;-1.45;100.00;95877.69;5073344;28;20257;-71
2022/12/13 09:26:06;;;;;;;0.40;0.40;;;;;;;-1.18;100.00;95865.59;5073059;28;20039;-72
2022/12/13 09:28:52;;;;;;;0.35;0.30;;;;;;;-1.30;100.00;95864.50;5061260;28;20077;-72
2022/12/13 09:31:39;;;;;;;0.40;0.30;;;;;;;-1.53;100.00;95879.63;5074064;28;20067;-72
2022/12/13 09:34:25;;;;;;;0.50;0.40;;;;;;;-1.44;100.00;95871.44;5073143;28;20543;-73
2022/12/13 09:37:12;;;;;;;0.45;0.38;;;;;;;-0.37;100.00;95870.41;5074893;28;20126;-70
2022/12/13 09:39:58;;;;;;;0.30;0.30;;;;;;;0.21;100.00;95862.94;5076187;28;20188;-74
2022/12/13 09:42:48;;;;;;;0.30;0.30;;;;;;;0.33;100.00;95861.38;5059414;28;20040;-72
2022/12/13 09:45:42;;;;;;;0.35;0.35;;;;;;;0.13;100.00;95860.50;5070634;28;20216;-72
2022/12/13 09:48:29;;;;;;;0.65;0.43;;;;;;;1.73;100.00;95857.69;5064020;28;20048;-75
2022/12/13 09:51:15;;;;;;;0.50;0.40;;;;;;;2.62;94.92;95866.63;5073502;28;20534;-74
2022/12/13 09:54:01;;;;;;;0.38;0.38;;;;;;;2.61;92.57;95865.03;5065396;27;20499;-74
2022/12/13 09:56:49;;;;;;;0.40;0.40;;;;;;;2.86;87.67;95871.13;5065454;28;20047;-74
2022/12/13 09:59:35;;;;;;;0.40;0.30;;;;;;;3.45;84.72;95861.13;5074939;28;20189;-72
2022/12/13 10:02:27;;;;;;;0.40;0.40;;;;;;;3.81;75.31;95862.97;5073284;28;20919;-74
2022/12/13 10:05:17;;;;;;;0.20;0.20;;;;;;;3.23;94.62;95864.16;5074603;28;20097;-75
2022/12/13 10:08:05;;;;;;;0.40;0.40;;;;;;;2.41;95.48;95868.59;5077047;28;20518;-75
2022/12/13 10:10:54;;;;;;;0.32;0.32;;;;;;;4.57;69.17;95854.50;5072066;28;20197;-73
2022/12/13 10:14:15;;;;;;;0.30;0.30;;;;;;;3.28;76.12;95855.56;5070664;28;20054;-76
2022/12/13 10:17:06;;;;;;;0.30;0.30;;;;;;;3.04;83.82;95858.00;5074252;28;20393;-74
2022/12/13 10:19:52;;;;;;;0.35;0.35;;;;;;;3.83;78.73;95850.34;5071745;28;20042;-74
2022/12/13 10:22:38;;;;;;;0.30;0.30;;;;;;;3.45;82.31;95851.34;5074605;28;20125;-75
2022/12/13 10:25:46;;;;;;;0.30;0.30;;;;;;;2.56;91.21;95856.91;5067274;28;20048;-74
2022/12/13 10:28:33;;;;;;;0.50;0.40;;;;;;;2.84;89.86;95841.47;5074141;28;20263;-73
2022/12/13 10:31:19;;;;;;;0.43;0.40;;;;;;;4.40;73.25;95845.56;5075627;28;20086;-76
2022/12/13 10:34:13;;;;;;;0.40;0.40;;;;;;;5.34;64.80;95827.22;5072924;28;20040;-73
2022/12/13 10:37:30;;;;;;;0.45;0.40;;;;;;;5.11;59.10;95838.63;5073190;28;20025;-74
2022/12/13 10:40:47;;;;;;;0.30;0.30;;;;;;;6.02;55.27;95830.06;5075252;28;20121;-74
2022/12/13 10:43:34;;;;;;;0.40;0.40;;;;;;;4.83;54.36;95832.13;5070090;28;20048;-75
2022/12/13 10:46:20;;;;;;;0.30;0.30;;;;;;;5.06;55.11;95820.75;5074812;28;20364;-74
2022/12/13 10:49:25;;;;;;;0.30;0.30;;;;;;;7.05;48.84;95819.44;5074053;28;20036;-72
2022/12/13 10:52:26;;;;;;;0.30;0.30;;;;;;;5.69;54.31;95819.25;5074920;28;20127;-72
2022/12/13 10:55:24;;;;;;;0.47;0.40;;;;;;;5.08;56.85;95810.72;5075952;27;20126;-72
2022/12/13 10:58:18;;;;;;;0.38;0.38;;;;;;;6.77;46.08;95796.34;5060958;28;20047;-74
2022/12/13 11:01:29;;;;;;;0.40;0.40;;;;;;;6.67;46.43;95800.44;5072248;28;20127;-71
2022/12/13 11:04:34;;;;;;;0.30;0.30;;;;;;;7.69;48.39;95795.91;5073069;28;20050;-74
2022/12/13 11:07:28;;;;;;;0.30;0.30;;;;;;;7.81;43.88;95794.75;5073412;28;20052;-73
2022/12/13 11:10:27;;;;;;;0.20;0.20;;;;;;;7.53;44.96;95786.88;5073518;28;20054;-73
2022/12/13 11:13:28;;;;;;;0.30;0.30;;;;;;;7.74;43.34;95794.13;5073842;28;20042;-73
2022/12/13 11:16:34;;;;;;;0.30;0.30;;;;;;;8.13;42.21;95772.75;5057153;28;20123;-76
2022/12/13 11:19:23;;;;;;;0.30;0.30;;;;;;;7.80;42.21;95773.69;5059244;28;20036;-73
2022/12/13 11:22:20;;;;;;;0.30;0.30;;;;;;;7.52;41.18;95770.13;5057711;28;20051;-73
2022/12/13 11:25:39;;;;;;;0.30;0.30;;;;;;;8.47;40.70;95757.41;5074659;28;20042;-71
2022/12/13 11:28:49;;;;;;;0.30;0.30;;;;;;;7.81;40.46;95746.78;5061204;28;20039;-74
2022/12/13 11:31:55;;;;;;;0.30;0.30;;;;;;;10.04;38.86;95748.88;4785663;28;10000479;-74
2022/12/13 11:35:13;;;;;;;0.30;0.30;;;;;;;10.60;37.62;95757.06;5064594;28;20584;-73
2022/12/13 11:38:05;;;;;;;0.30;0.30;;;;;;;8.29;38.27;95750.53;5064574;28;20596;-74
2022/12/13 11:41:17;;;;;;;0.30;0.30;;;;;;;7.37;40.63;95751.28;5076727;28;20233;-73
2022/12/13 11:44:29;;;;;;;0.30;0.30;;;;;;;6.90;41.95;95748.19;5073975;28;20469;-72
2022/12/13 11:47:26;;;;;;;0.30;0.30;;;;;;;5.91;42.50;95745.91;5075300;28;20152;-74
2022/12/13 11:50:21;;;;;;;0.20;0.20;;;;;;;4.81;48.58;95752.00;5075300;28;20815;-74
2022/12/13 11:53:39;;;;;;;0.50;0.40;;;;;;;6.95;43.15;95743.75;5076029;28;20126;-76
2022/12/13 11:56:32;;;;;;;0.20;0.20;;;;;;;6.64;41.26;95728.34;5060886;28;20105;-72
2022/12/13 11:59:35;;;;;;;0.22;0.22;;;;;;;7.35;40.50;95710.00;5073609;28;20050;-73
2022/12/13 12:02:27;;;;;;;0.30;0.30;;;;;;;8.85;38.20;95731.59;5073087;28;20075;-74
2022/12/13 12:05:35;;;;;;;0.38;0.32;;;;;;;9.58;37.10;95735.31;5072850;28;20337;-74
2022/12/13 12:08:32;;;;;;;0.35;0.30;;;;;;;9.57;35.89;95736.38;5071284;28;20814;-74
2022/12/13 12:11:45;;;;;;;0.40;0.40;;;;;;;9.32;36.35;95738.88;5072438;28;20398;-75
2022/12/13 12:14:42;;;;;;;0.30;0.30;;;;;;;8.51;37.65;95729.19;5076210;28;20050;-74
2022/12/13 12:17:32;;;;;;;0.20;0.20;;;;;;;8.02;38.97;95736.38;5073915;28;20135;-74
2022/12/13 12:20:34;;;;;;;0.20;0.20;;;;;;;7.87;38.44;95737.03;5058270;28;20036;-74
2022/12/13 12:23:38;;;;;;;0.30;0.30;;;;;;;7.55;40.58;95731.56;5071521;28;20055;-74
2022/12/13 12:26:49;;;;;;;0.40;0.40;;;;;;;8.86;38.12;95714.53;5075917;28;20524;-74
2022/12/13 12:29:52;;;;;;;0.47;0.40;;;;;;;8.65;38.66;95727.72;5072958;27;20806;-71
2022/12/13 12:32:50;;;;;;;0.30;0.30;;;;;;;8.31;38.19;95719.09;5044425;28;20193;-73
2022/12/13 12:35:48;;;;;;;0.30;0.30;;;;;;;6.83;41.09;95727.06;5045705;28;20382;-72
2022/12/13 12:38:43;;;;;;;0.20;0.20;;;;;;;5.87;42.36;95734.94;5075262;28;20028;-72
2022/12/13 12:41:52;;;;;;;0.10;0.10;;;;;;;2.26;61.69;95733.41;5074884;28;20102;-74
2022/12/13 12:44:48;;;;;;;0.10;0.10;;;;;;;1.21;85.77;95732.91;5072060;28;20616;-74
2022/12/13 12:47:50;;;;;;;0.20;0.20;;;;;;;0.12;93.61;95716.81;5072647;28;20051;-71
2022/12/13 12:50:52;;;;;;;0.10;0.10;;;;;;;-0.38;98.98;95730.28;5074012;28;20467;-72
2022/12/13 12:53:46;;;;;;;;;;;;;;;-0.67;100.00;95736.63;5072373;28;20043;-73
2022/12/13 12:56:49;;;;;;;0.10;0.10;;;;;;;-0.96;100.00;95723.75;5062721;28;20346;-71
2022/12/13 12:59:57;;;;;;;0.17;0.17;;;;;;;-1.17;100.00;95732.50;5073340;28;20145;-72
2022/12/13 13:03:27;;;;;;;0.17;0.17;;;;;;;-0.45;100.00;95736.50;5073774;28;20052;-73
2022/12/13 13:06:20;;;;;;;0.10;0.10;;;;;;;-1.37;100.00;95734.22;5003262;28;20049;-72
2022/12/13 13:09:10;;;;;;;0.20;0.20;;;;;;;-1.29;100.00;95721.75;5043309;27;20043;-70
2022/12/13 13:11:56;;;;;;;0.10;0.10;;;;;;;-1.85;100.00;95728.81;5073564;28;20237;-72
2022/12/13 13:14:42;;;;;;;0.20;0.20;;;;;;;-1.56;100.00;95720.72;5073185;28;20048;-72
2022/12/13 13:17:28;;;;;;;0.10;0.10;;;;;;;-1.55;100.00;95725.00;5077768;28;20592;-70
2022/12/13 13:20:23;;;;;;;0.10;0.10;;;;;;;-1.96;100.00;95717.78;5075952;27;20521;-74
2022/12/13 13:23:14;;;;;;;0.10;0.10;;;;;;;-1.50;100.00;95719.16;5075846;28;20363;-72
2022/12/13 13:26:00;;;;;;;0.20;0.20;;;;;;;-1.54;100.00;95726.63;5073634;27;20044;-73